Time;durP1;ratioP1;P1;durP2;ratioP2;P2;SDS_P1;SDS_P2;PMS_P1;PMS_P2;Temp;Humidity;BMP_temperature;BMP_pressure;BME280_temperature;BME280_humidity;BME280_pressure;Samples;Min_cycle;Max_cycle;Signal;HPM_P1;HPM_P2
2023/09/28 00:01:32;;;;;;;;;;;;;;;24.84;31.18;100980.56;108940;1267;67536;-85
2023/09/28 00:03:58;;;;;;;;;;;;;;;24.84;31.03;100977.67;108970;1266;67650;-84
2023/09/28 00:06:24;;;;;;;;;;;;;;;24.83;31.41;100975.83;108935;1270;67520;-85
2023/09/28 00:08:49;;;;;;;;;;;;;;;24.83;31.18;100975.84;108937;1267;67574;-85
2023/09/28 00:11:15;;;;;;;;;;;;;;;24.83;31.22;100971.36;109020;1267;67575;-85
2023/09/28 00:13:40;;;;;;;;;;;;;;;24.83;31.26;100974.60;108914;1267;67673;-85
2023/09/28 00:16:05;;;;;;;;;;;;;;;24.82;31.14;100975.84;108923;1267;67557;-85
2023/09/28 00:18:31;;;;;;;;;;;;;;;24.82;31.13;100971.42;108916;1267;67581;-85
2023/09/28 00:20:56;;;;;;;;;;;;;;;24.82;31.20;100972.09;109028;1267;67554;-85
2023/09/28 00:23:22;;;;;;;;;;;;;;;24.82;31.23;100971.25;109065;1266;67643;-85
2023/09/28 00:25:47;;;;;;;;;;;;;;;24.82;31.10;100970.08;108928;1267;67743;-85
2023/09/28 00:28:13;;;;;;;;;;;;;;;24.81;31.13;100973.42;108906;1267;67657;-85
2023/09/28 00:30:38;;;;;;;;;;;;;;;24.81;31.08;100972.25;108912;1266;67584;-85
2023/09/28 00:33:04;;;;;;;;;;;;;;;24.80;31.08;100974.47;109016;1267;67608;-85
2023/09/28 00:35:29;;;;;;;;;;;;;;;24.81;31.15;100979.15;108914;1266;68095;-85
2023/09/28 00:37:54;;;;;;;;;;;;;;;24.80;31.13;100975.86;108959;1266;67609;-85
2023/09/28 00:40:32;;;;;;;;;;;;;;;24.80;31.30;100980.50;108909;1266;67591;-85
2023/09/28 00:42:58;;;;;;;;;;;;;;;24.79;31.19;100978.91;108998;1267;67569;-85
2023/09/28 00:45:24;;;;;;;;;;;;;;;24.79;31.10;100978.48;109043;1266;67481;-85
2023/09/28 00:47:50;;;;;;;;;;;;;;;24.80;31.27;100978.91;108957;1267;67544;-85
2023/09/28 00:50:16;;;;;;;;;;;;;;;24.79;31.20;100976.96;108958;1267;66912;-85
2023/09/28 00:52:46;;;;;;;;;;;;;;;24.78;31.20;100977.17;109086;1265;67113;-85
2023/09/28 00:55:12;;;;;;;;;;;;;;;24.78;31.12;100976.60;108976;1267;67580;-85
2023/09/28 00:57:41;;;;;;;;;;;;;;;24.78;31.03;100976.49;109012;1265;67540;-85
2023/09/28 01:00:18;;;;;;;;;;;;;;;24.77;31.20;100973.41;109059;1266;74339;-86
2023/09/28 01:02:43;;;;;;;;;;;;;;;24.77;31.31;100977.38;108959;1267;66834;-85
2023/09/28 01:05:09;;;;;;;;;;;;;;;24.76;31.25;100975.89;108923;1266;67546;-85
2023/09/28 01:07:34;;;;;;;;;;;;;;;24.76;31.05;100977.33;108945;1267;67531;-85
2023/09/28 01:10:00;;;;;;;;;;;;;;;24.76;31.04;100977.90;108978;1267;67593;-86
2023/09/28 01:12:26;;;;;;;;;;;;;;;24.76;31.17;100976.88;109078;1265;67756;-86
2023/09/28 01:14:52;;;;;;;;;;;;;;;24.75;31.08;100973.69;109087;1266;67501;-86
2023/09/28 01:17:18;;;;;;;;;;;;;;;24.75;31.13;100975.08;109094;1266;67608;-90
2023/09/28 01:19:44;;;;;;;;;;;;;;;24.75;31.08;100977.65;109057;1268;67662;-85
2023/09/28 01:22:15;;;;;;;;;;;;;;;24.75;31.08;100975.13;108975;1265;66966;-86
2023/09/28 01:24:41;;;;;;;;;;;;;;;24.75;31.08;100975.29;109090;1265;67568;-85
2023/09/28 01:27:06;;;;;;;;;;;;;;;24.74;31.04;100977.25;108948;1267;67454;-85
2023/09/28 01:29:32;;;;;;;;;;;;;;;24.74;31.05;100974.10;108921;1266;67741;-86
2023/09/28 01:31:57;;;;;;;;;;;;;;;24.74;31.04;100974.77;108968;1266;66991;-85
2023/09/28 01:34:23;;;;;;;;;;;;;;;24.74;31.16;100971.95;108951;1267;67628;-84
2023/09/28 01:36:49;;;;;;;;;;;;;;;24.73;30.98;100969.89;108955;1265;67012;-85
2023/09/28 01:39:15;;;;;;;;;;;;;;;24.73;30.89;100971.02;108973;1266;67801;-85
2023/09/28 01:41:41;;;;;;;;;;;;;;;24.73;30.79;100968.71;108928;1267;67610;-85
2023/09/28 01:44:07;;;;;;;;;;;;;;;24.73;31.04;100967.95;108946;1267;67796;-89
2023/09/28 01:46:32;;;;;;;;;;;;;;;24.73;30.94;100963.10;108979;1266;67570;-85
2023/09/28 01:48:58;;;;;;;;;;;;;;;24.72;31.15;100957.80;108925;1267;67536;-85
2023/09/28 01:51:23;;;;;;;;;;;;;;;24.72;30.92;100956.01;109036;1265;67520;-85
2023/09/28 01:53:49;;;;;;;;;;;;;;;24.71;30.96;100955.49;108932;1266;67996;-85
2023/09/28 01:56:18;;;;;;;;;;;;;;;24.71;30.90;100953.34;108853;1266;67166;-90
2023/09/28 01:58:44;;;;;;;;;;;;;;;24.71;31.08;100956.48;108976;1267;67593;-85
2023/09/28 02:01:11;;;;;;;;;;;;;;;24.71;30.91;100960.14;108899;1266;67621;-85
2023/09/28 02:03:37;;;;;;;;;;;;;;;24.71;30.92;100962.14;108949;1266;74244;-85
2023/09/28 02:06:03;;;;;;;;;;;;;;;24.71;30.97;100962.23;108952;1265;67528;-85
2023/09/28 02:08:28;;;;;;;;;;;;;;;24.71;30.94;100964.09;109013;1265;67474;-85
2023/09/28 02:10:54;;;;;;;;;;;;;;;24.71;31.02;100965.11;108857;1266;67715;-85
2023/09/28 02:13:19;;;;;;;;;;;;;;;24.70;30.90;100963.41;109096;1266;67508;-85
2023/09/28 02:15:45;;;;;;;;;;;;;;;24.70;30.82;100967.02;108902;1266;68058;-85
2023/09/28 02:18:10;;;;;;;;;;;;;;;24.70;31.10;100965.31;108913;1266;66911;-85
2023/09/28 02:20:35;;;;;;;;;;;;;;;24.69;30.90;100962.73;109042;1265;67466;-85
2023/09/28 02:23:09;;;;;;;;;;;;;;;24.70;31.04;100967.73;108932;1266;67504;-89
2023/09/28 02:25:34;;;;;;;;;;;;;;;24.69;30.78;100964.85;108978;1266;67502;-85
2023/09/28 02:28:00;;;;;;;;;;;;;;;24.69;30.85;100965.52;108886;1266;67585;-85
2023/09/28 02:30:26;;;;;;;;;;;;;;;24.69;30.91;100968.39;108925;1266;66888;-84
2023/09/28 02:32:51;;;;;;;;;;;;;;;24.68;31.06;100972.36;109037;1265;67577;-85
2023/09/28 02:35:17;;;;;;;;;;;;;;;24.68;30.96;100968.52;109102;1265;67489;-86
2023/09/28 02:37:44;;;;;;;;;;;;;;;24.68;31.01;100967.79;109061;1265;74162;-85
2023/09/28 02:40:10;;;;;;;;;;;;;;;24.68;30.95;100970.06;108967;1266;67395;-85
2023/09/28 02:42:35;;;;;;;;;;;;;;;24.68;31.00;100972.58;108966;1266;67589;-85
2023/09/28 02:45:01;;;;;;;;;;;;;;;24.68;31.10;100971.45;108954;1266;67647;-85
2023/09/28 02:47:26;;;;;;;;;;;;;;;24.67;30.93;100969.34;109091;1265;67623;-86
2023/09/28 02:52:35;;;;;;;;;;;;;;;24.66;30.89;100970.64;109129;1266;67671;-86
2023/09/28 02:55:02;;;;;;;;;;;;;;;24.66;30.89;100970.90;108954;1266;67474;-86
2023/09/28 02:57:28;;;;;;;;;;;;;;;24.66;31.05;100972.45;109008;1266;67637;-86
2023/09/28 02:59:53;;;;;;;;;;;;;;;24.65;30.95;100972.40;108948;1266;67741;-86
2023/09/28 03:02:20;;;;;;;;;;;;;;;24.65;30.84;100973.69;108975;1266;67547;-85
2023/09/28 03:04:45;;;;;;;;;;;;;;;24.65;30.74;100974.41;108937;1267;67502;-86
2023/09/28 03:07:10;;;;;;;;;;;;;;;24.65;30.80;100967.83;109017;1266;67549;-85
2023/09/28 03:09:36;;;;;;;;;;;;;;;24.64;30.88;100975.14;109012;1266;67694;-85
2023/09/28 03:12:01;;;;;;;;;;;;;;;24.64;30.88;100976.23;108893;1266;67725;-86
2023/09/28 03:14:27;;;;;;;;;;;;;;;24.64;30.97;100976.93;108857;1266;67697;-86
2023/09/28 03:16:53;;;;;;;;;;;;;;;24.65;31.07;100975.34;108949;1266;67581;-91
2023/09/28 03:19:19;;;;;;;;;;;;;;;24.66;31.17;100977.85;108989;1269;67541;-85
2023/09/28 03:21:45;;;;;;;;;;;;;;;24.64;31.21;100976.41;108957;1267;67546;-86
2023/09/28 03:24:10;;;;;;;;;;;;;;;24.59;31.44;100978.71;108983;1269;67702;-85
2023/09/28 03:26:36;;;;;;;;;;;;;;;24.53;31.59;100980.00;108955;1266;67665;-86
2023/09/28 03:29:01;;;;;;;;;;;;;;;24.41;31.48;100980.59;108944;1266;68037;-86
2023/09/28 03:31:27;;;;;;;;;;;;;;;24.27;31.57;100980.21;108947;1266;67362;-85
2023/09/28 03:33:53;;;;;;;;;;;;;;;24.16;31.63;100983.25;108950;1266;67669;-85
2023/09/28 03:36:19;;;;;;;;;;;;;;;24.08;31.43;100983.30;109005;1266;67628;-85
2023/09/28 03:38:44;;;;;;;;;;;;;;;24.01;31.39;100984.60;109009;1266;67425;-85
2023/09/28 03:41:09;;;;;;;;;;;;;;;23.93;31.38;100990.16;109001;1265;67581;-86
2023/09/28 03:43:35;;;;;;;;;;;;;;;23.88;31.53;100984.59;108984;1267;67651;-86
2023/09/28 03:46:01;;;;;;;;;;;;;;;23.82;31.49;100981.83;108959;1265;67560;-85
2023/09/28 03:48:27;;;;;;;;;;;;;;;23.77;31.46;100985.35;109097;1265;67607;-85
2023/09/28 03:50:52;;;;;;;;;;;;;;;23.71;31.44;100981.92;109015;1267;74342;-86
2023/09/28 03:53:18;;;;;;;;;;;;;;;23.68;31.36;100983.58;108996;1267;67153;-86
2023/09/28 03:55:47;;;;;;;;;;;;;;;23.68;31.43;100981.58;108958;1266;67709;-91
2023/09/28 03:58:12;;;;;;;;;;;;;;;23.69;31.34;100981.98;109071;1267;67598;-86
2023/09/28 04:00:38;;;;;;;;;;;;;;;23.70;31.38;100986.91;108975;1266;67517;-86
2023/09/28 04:03:04;;;;;;;;;;;;;;;23.70;31.52;100988.24;109025;1266;67674;-86
2023/09/28 04:05:30;;;;;;;;;;;;;;;23.70;31.41;100993.23;109007;1267;67626;-86
2023/09/28 04:07:56;;;;;;;;;;;;;;;23.70;31.36;100994.16;108980;1266;68262;-86
2023/09/28 04:10:21;;;;;;;;;;;;;;;23.70;31.31;101000.33;109013;1266;67699;-85
2023/09/28 04:12:47;;;;;;;;;;;;;;;23.68;31.18;100996.37;109031;1265;68610;-86
2023/09/28 04:15:12;;;;;;;;;;;;;;;23.64;31.34;100997.23;109001;1267;67611;-86
2023/09/28 04:17:37;;;;;;;;;;;;;;;23.65;31.26;101001.16;109104;1266;67636;-84
2023/09/28 04:20:06;;;;;;;;;;;;;;;23.64;31.32;101001.77;109087;1266;67531;-86
2023/09/28 04:25:11;;;;;;;;;;;;;;;23.57;31.23;101006.11;108928;1266;67871;-86
2023/09/28 04:27:37;;;;;;;;;;;;;;;23.54;31.20;101004.83;108963;1266;68007;-86
2023/09/28 04:30:03;;;;;;;;;;;;;;;23.53;31.20;101009.31;108905;1266;68147;-87
2023/09/28 04:32:31;;;;;;;;;;;;;;;23.51;31.15;101011.20;108935;1266;67869;-87
2023/09/28 04:34:58;;;;;;;;;;;;;;;23.51;31.11;101012.17;108992;1266;74306;-89
2023/09/28 04:37:25;;;;;;;;;;;;;;;23.50;31.18;101011.92;108896;1267;67326;-90
2023/09/28 04:40:02;;;;;;;;;;;;;;;23.50;31.17;101013.73;108910;1266;67823;-90
2023/09/28 04:42:41;;;;;;;;;;;;;;;23.52;31.18;101015.66;109071;1264;67363;-90
2023/09/28 04:45:16;;;;;;;;;;;;;;;23.56;31.28;101019.27;109087;1265;67184;-92
2023/09/28 04:47:42;;;;;;;;;;;;;;;23.60;31.37;101020.17;109097;1264;74260;-90
2023/09/28 04:59:09;;;;;;;;;;;;;;;23.78;31.34;101020.39;108878;1268;66729;-88
2023/09/28 05:04:50;;;;;;;;;;;;;;;23.84;31.22;101015.52;108616;1267;554794;-91
2023/09/28 05:07:16;;;;;;;;;;;;;;;23.87;31.20;101017.27;109054;1266;67826;-90
2023/09/28 05:12:54;;;;;;;;;;;;;;;23.93;31.28;101015.77;108032;1265;557057;-91
2023/09/28 05:15:23;;;;;;;;;;;;;;;23.96;31.17;101020.78;108900;1266;74707;-90
2023/09/28 05:17:54;;;;;;;;;;;;;;;23.98;31.10;101019.15;109044;1266;67372;-93
2023/09/28 05:23:36;;;;;;;;;;;;;;;24.00;31.16;101018.08;108327;1264;554832;-92
2023/09/28 05:26:04;;;;;;;;;;;;;;;24.02;31.21;101018.63;109045;1266;67447;-90
2023/09/28 06:06:47;;;;;;;;;;;;;;;24.22;31.12;101043.83;108738;1265;522503;-90
2023/09/28 06:26:30;;;;;;;;;;;;;;;24.34;31.08;101048.91;109098;1267;65395;-91
2023/09/28 07:51:19;;;;;;;;;;;;;;;;;;;;;
2023/09/28 07:54:16;;;;;;;;;;;;;;;24.58;31.29;101058.20;108989;1268;67887;-88
2023/09/28 07:56:44;;;;;;;;;;;;;;;24.58;31.32;101056.60;109090;1264;67049;-91
2023/09/28 07:59:13;;;;;;;;;;;;;;;24.58;31.28;101055.12;109091;1264;67936;-90
2023/09/28 08:01:38;;;;;;;;;;;;;;;24.58;31.24;101051.41;109120;1264;74139;-88
2023/09/28 08:04:04;;;;;;;;;;;;;;;24.59;31.26;101056.70;109126;1264;67680;-89
2023/09/28 08:09:25;;;;;;;;;;;;;;;24.61;31.23;101058.24;108866;1265;554869;-89
2023/09/28 08:11:52;;;;;;;;;;;;;;;24.63;31.20;101056.79;109360;1264;66895;-90
2023/09/28 08:14:42;;;;;;;;;;;;;;;24.64;31.08;101055.20;108691;1264;555163;-91
2023/09/28 08:20:44;;;;;;;;;;;;;;;24.67;31.10;101050.04;108420;1264;554944;-91
2023/09/28 08:23:11;;;;;;;;;;;;;;;24.68;31.09;101045.29;109233;1264;67103;-88
2023/09/28 08:25:37;;;;;;;;;;;;;;;24.69;30.90;101048.93;109271;1264;66941;-89
2023/09/28 08:47:55;;;;;;;;;;;;;;;24.74;30.48;101041.73;109085;1265;67225;-90
2023/09/28 09:19:41;;;;;;;;;;;;;;;24.84;30.27;101039.60;109080;1265;65764;-90
2023/09/28 10:11:22;;;;;;;;;;;;;;;25.04;29.79;101009.58;109191;1267;71686;-91
2023/09/28 10:14:05;;;;;;;;;;;;;;;25.05;29.73;101014.61;108967;1266;67588;-90
2023/09/28 10:16:34;;;;;;;;;;;;;;;25.05;29.72;101008.08;108878;1271;67067;-91
2023/09/28 10:18:59;;;;;;;;;;;;;;;25.05;29.74;101004.11;108991;1266;67561;-89
2023/09/28 10:24:09;;;;;;;;;;;;;;;25.05;29.61;101000.82;108952;1266;68076;-89
2023/09/28 10:29:47;;;;;;;;;;;;;;;25.03;29.45;101000.27;108755;1265;554811;-91
2023/09/28 10:32:40;;;;;;;;;;;;;;;25.02;29.61;100997.05;108521;1267;549292;-92
2023/09/28 10:55:55;;;;;;;;;;;;;;;25.02;29.38;100983.52;109052;1264;67547;-90
2023/09/28 11:36:48;;;;;;;;;;;;;;;25.04;29.24;100974.68;108627;1265;560405;-89
2023/09/28 11:50:18;;;;;;;;;;;;;;;25.05;29.36;100964.20;109035;1267;75436;-90
2023/09/28 11:52:48;;;;;;;;;;;;;;;25.06;29.42;100967.44;109075;1265;66990;-88
2023/09/28 12:01:06;;;;;;;;;;;;;;;25.08;29.29;100962.34;109008;1265;67106;-90
2023/09/28 12:06:28;;;;;;;;;;;;;;;25.08;29.36;100967.89;109103;1266;67285;31
2023/09/28 12:19:23;;;;;;;;;;;;;;;25.07;29.04;100947.00;109062;1266;67686;-89
2023/09/28 12:21:48;;;;;;;;;;;;;;;25.07;29.06;100940.21;108898;1266;67632;-89
2023/09/28 12:27:14;;;;;;;;;;;;;;;25.07;29.13;100941.75;109025;1266;67740;-90
2023/09/28 13:07:41;;;;;;;;;;;;;;;25.17;28.80;100915.08;108800;1266;555289;-93
2023/09/28 13:15:30;;;;;;;;;;;;;;;25.20;28.67;100911.81;108864;1266;67496;-89
2023/09/28 13:18:07;;;;;;;;;;;;;;;25.20;28.87;100910.30;109033;1266;67904;-90
2023/09/28 13:56:15;;;;;;;;;;;;;;;25.18;28.66;100897.10;109022;1269;71518;-90
2023/09/28 13:58:45;;;;;;;;;;;;;;;25.17;28.74;100899.77;108972;1267;66936;-91
2023/09/28 14:04:23;;;;;;;;;;;;;;;25.16;28.80;100897.64;109081;1266;67129;-90
2023/09/28 14:06:49;;;;;;;;;;;;;;;25.16;28.73;100900.88;108944;1266;67118;-89
2023/09/28 14:09:18;;;;;;;;;;;;;;;25.16;28.68;100903.55;108945;1266;67727;-89
2023/09/28 14:11:47;;;;;;;;;;;;;;;25.16;28.72;100900.11;108885;1266;66935;-90
2023/09/28 14:14:14;;;;;;;;;;;;;;;25.16;28.68;100901.30;109024;1266;67394;-88
2023/09/28 14:19:33;;;;;;;;;;;;;;;25.16;28.83;100909.52;109030;1267;75464;-90
2023/09/28 14:21:59;;;;;;;;;;;;;;;25.16;28.76;100906.44;108994;1265;74240;-90
2023/09/28 14:27:06;;;;;;;;;;;;;;;25.16;28.75;100905.11;108615;1266;555158;-89
2023/09/28 14:29:37;;;;;;;;;;;;;;;25.16;28.85;100907.94;108951;1266;68567;31
2023/09/28 14:34:36;;;;;;;;;;;;;;;25.16;28.90;100905.37;108327;1265;560752;-89
2023/09/28 14:48:31;;;;;;;;;;;;;;;25.14;28.89;100920.02;109122;1265;74202;-93
2023/09/28 15:02:58;;;;;;;;;;;;;;;25.13;28.92;100922.70;109065;1266;74799;-90
2023/09/28 15:05:44;;;;;;;;;;;;;;;25.13;28.92;100921.71;109108;1265;67322;31
2023/09/28 15:08:10;;;;;;;;;;;;;;;25.12;29.07;100924.20;108981;1266;67525;-91
2023/09/28 15:10:36;;;;;;;;;;;;;;;25.12;29.02;100929.09;108924;1266;67682;-90
2023/09/28 15:13:03;;;;;;;;;;;;;;;25.12;28.99;100930.95;109095;1265;67145;-90
2023/09/28 15:15:37;;;;;;;;;;;;;;;25.11;29.04;100931.88;109100;1266;67138;-90
2023/09/28 15:18:06;;;;;;;;;;;;;;;25.11;29.13;100935.27;108970;1266;67043;-90
2023/09/28 15:20:35;;;;;;;;;;;;;;;25.10;29.02;100936.02;109119;1266;66993;-90
2023/09/28 15:23:07;;;;;;;;;;;;;;;25.10;29.07;100936.06;109054;1267;67582;-90
2023/09/28 15:25:36;;;;;;;;;;;;;;;25.11;28.99;100937.91;108986;1266;67160;-90
2023/09/28 15:28:04;;;;;;;;;;;;;;;25.10;29.06;100936.01;109065;1265;74646;-90
2023/09/28 15:30:35;;;;;;;;;;;;;;;25.10;29.01;100934.52;108901;1266;72490;-90
2023/09/28 15:33:03;;;;;;;;;;;;;;;25.10;29.00;100934.67;108865;1266;67676;-91
2023/09/28 15:35:29;;;;;;;;;;;;;;;25.09;29.06;100936.02;108963;1266;67711;-87
2023/09/28 15:37:55;;;;;;;;;;;;;;;25.09;29.10;100938.80;108969;1266;67976;-91
2023/09/28 15:43:06;;;;;;;;;;;;;;;25.08;29.14;100936.90;109015;1266;67573;-89
2023/09/28 15:48:21;;;;;;;;;;;;;;;25.07;28.92;100939.79;108253;1265;561106;-88
2023/09/28 15:50:46;;;;;;;;;;;;;;;25.06;29.15;100934.91;108995;1265;67696;-90
2023/09/28 15:53:19;;;;;;;;;;;;;;;25.06;29.01;100932.33;109117;1266;67647;31
2023/09/28 15:55:45;;;;;;;;;;;;;;;25.06;29.10;100932.02;109058;1266;67460;-90
2023/09/28 15:58:10;;;;;;;;;;;;;;;25.05;29.02;100927.80;109015;1266;67861;-90
2023/09/28 16:00:36;;;;;;;;;;;;;;;25.05;29.01;100928.95;108914;1266;67550;-90
2023/09/28 16:03:01;;;;;;;;;;;;;;;25.05;29.00;100929.10;108948;1266;67108;-90
2023/09/28 16:05:30;;;;;;;;;;;;;;;25.05;28.92;100925.65;108568;1267;557604;-92
2023/09/28 16:07:58;;;;;;;;;;;;;;;25.05;29.00;100928.63;109255;1265;67093;-89
2023/09/28 16:10:23;;;;;;;;;;;;;;;25.04;28.97;100931.42;108395;1264;555365;-87
2023/09/28 16:15:26;;;;;;;;;;;;;;;25.04;29.09;100932.05;108336;1266;554856;-91
2023/09/28 16:17:51;;;;;;;;;;;;;;;25.03;29.26;100931.86;109065;1265;67283;-90
2023/09/28 16:20:16;;;;;;;;;;;;;;;25.03;29.02;100932.73;109070;1266;67621;-90
2023/09/28 16:22:42;;;;;;;;;;;;;;;25.03;28.95;100932.23;109023;1266;67780;-90
2023/09/28 16:25:07;;;;;;;;;;;;;;;25.03;29.07;100928.82;109097;1266;67377;-90
2023/09/28 16:27:33;;;;;;;;;;;;;;;25.02;29.13;100929.91;109038;1265;67622;-89
2023/09/28 16:29:59;;;;;;;;;;;;;;;25.02;29.21;100928.73;108905;1265;67614;-89
2023/09/28 16:32:24;;;;;;;;;;;;;;;25.03;28.97;100934.34;109052;1265;67689;-90
2023/09/28 16:34:49;;;;;;;;;;;;;;;25.02;29.13;100932.59;108965;1265;67652;-90
2023/09/28 16:37:15;;;;;;;;;;;;;;;25.02;28.99;100931.88;109000;1265;67523;-90
2023/09/28 16:39:40;;;;;;;;;;;;;;;25.02;29.20;100931.45;108938;1266;67612;-90
2023/09/28 16:42:06;;;;;;;;;;;;;;;25.02;28.99;100932.73;109086;1266;67285;-90
2023/09/28 16:44:31;;;;;;;;;;;;;;;25.02;29.10;100935.07;108917;1266;67282;-89
2023/09/28 16:49:29;;;;;;;;;;;;;;;25.02;29.18;100931.60;109127;1264;67603;-90
2023/09/28 16:51:54;;;;;;;;;;;;;;;25.02;29.29;100931.77;108951;1266;67830;-89
2023/09/28 16:54:20;;;;;;;;;;;;;;;25.03;29.19;100931.70;108916;1265;68098;-89
2023/09/28 16:56:46;;;;;;;;;;;;;;;25.02;29.17;100934.19;108891;1266;67714;-90
2023/09/28 16:59:11;;;;;;;;;;;;;;;25.03;29.16;100942.57;109081;1266;67680;-89
2023/09/28 17:01:36;;;;;;;;;;;;;;;25.03;29.13;100941.34;109059;1265;67574;-90
2023/09/28 17:04:02;;;;;;;;;;;;;;;25.03;29.09;100942.33;109041;1266;67129;-90
2023/09/28 17:06:31;;;;;;;;;;;;;;;25.03;29.30;100942.16;108726;1265;559352;-93
2023/09/28 17:08:56;;;;;;;;;;;;;;;25.03;29.24;100947.30;108998;1266;67658;-89
2023/09/28 17:11:22;;;;;;;;;;;;;;;25.03;29.14;100947.98;108923;1267;67555;-89
2023/09/28 17:16:31;;;;;;;;;;;;;;;25.03;29.25;100951.53;108930;1266;67678;-89
2023/09/28 17:18:57;;;;;;;;;;;;;;;25.03;29.06;100952.80;109062;1266;75186;-89
2023/09/28 17:21:23;;;;;;;;;;;;;;;25.03;28.97;100956.10;109051;1267;67688;-89
2023/09/28 17:23:48;;;;;;;;;;;;;;;25.03;29.05;100959.25;108913;1266;67579;-89
2023/09/28 17:26:14;;;;;;;;;;;;;;;25.03;29.13;100959.98;108925;1266;67711;-89
2023/09/28 17:28:41;;;;;;;;;;;;;;;25.02;29.15;100961.06;109031;1265;67596;-89
2023/09/28 17:31:07;;;;;;;;;;;;;;;25.02;29.31;100963.99;109128;1268;66969;-89
2023/09/28 17:33:32;;;;;;;;;;;;;;;25.01;29.24;100961.93;108926;1266;66927;-89
2023/09/28 17:35:58;;;;;;;;;;;;;;;25.01;29.13;100964.21;109107;1266;67627;-89
2023/09/28 17:38:23;;;;;;;;;;;;;;;25.01;29.29;100961.90;108982;1266;67810;-89
2023/09/28 17:40:57;;;;;;;;;;;;;;;25.00;29.19;100963.38;108949;1265;339642;31
2023/09/28 17:43:23;;;;;;;;;;;;;;;25.00;29.26;100966.79;108971;1267;66926;-89
2023/09/28 17:45:48;;;;;;;;;;;;;;;25.00;29.35;100969.16;109086;1265;67117;-89
2023/09/28 17:48:14;;;;;;;;;;;;;;;25.00;29.36;100969.36;109134;1267;67561;-89
2023/09/28 17:50:41;;;;;;;;;;;;;;;24.99;29.45;100968.91;109159;1265;66975;-89
2023/09/28 17:53:06;;;;;;;;;;;;;;;24.99;29.31;100968.50;108983;1267;67558;-89
2023/09/28 17:55:32;;;;;;;;;;;;;;;24.98;29.30;100972.94;109154;1266;66926;-89
2023/09/28 17:57:57;;;;;;;;;;;;;;;24.99;29.27;100975.91;109141;1265;66945;-89
2023/09/28 18:00:23;;;;;;;;;;;;;;;24.98;29.41;100982.80;109069;1265;66928;-89
2023/09/28 18:02:49;;;;;;;;;;;;;;;24.98;29.44;100979.00;109054;1265;67695;-89
2023/09/28 18:05:14;;;;;;;;;;;;;;;24.98;29.23;100978.75;109017;1265;67648;-89
2023/09/28 18:07:50;;;;;;;;;;;;;;;24.97;29.46;100978.55;109108;1265;67583;-90
2023/09/28 18:10:15;;;;;;;;;;;;;;;24.97;29.31;100984.66;109080;1266;67482;-89
2023/09/28 18:12:41;;;;;;;;;;;;;;;24.97;29.29;100983.39;108939;1271;67843;-89
2023/09/28 18:15:08;;;;;;;;;;;;;;;24.97;29.45;100987.45;109061;1266;67733;-89
2023/09/28 18:17:36;;;;;;;;;;;;;;;24.97;29.35;100981.75;108910;1268;67268;-89
2023/09/28 18:20:03;;;;;;;;;;;;;;;24.96;29.42;100981.59;109054;1265;67526;-89
2023/09/28 18:22:30;;;;;;;;;;;;;;;24.96;29.28;100984.13;109142;1266;67676;-89
2023/09/28 18:25:02;;;;;;;;;;;;;;;24.96;29.42;100983.81;108963;1265;74320;-89
2023/09/28 18:27:27;;;;;;;;;;;;;;;24.96;29.57;100984.17;109024;1265;67038;-89
2023/09/28 18:29:53;;;;;;;;;;;;;;;24.95;29.46;100990.30;109102;1265;67770;-90
2023/09/28 18:32:18;;;;;;;;;;;;;;;24.95;29.39;100985.92;109063;1265;67433;-89
2023/09/28 18:34:45;;;;;;;;;;;;;;;24.95;29.38;100987.73;109019;1265;67073;-89
2023/09/28 18:37:10;;;;;;;;;;;;;;;24.94;29.19;100989.38;108955;1265;67617;-90
2023/09/28 18:39:36;;;;;;;;;;;;;;;24.94;29.59;100990.78;109093;1266;67877;-90
2023/09/28 18:42:02;;;;;;;;;;;;;;;24.93;29.52;100990.73;109190;1266;68137;-89
2023/09/28 18:44:27;;;;;;;;;;;;;;;24.93;29.24;100993.83;109207;1265;66946;-89
2023/09/28 18:46:53;;;;;;;;;;;;;;;24.93;29.62;100993.92;109155;1265;67822;-89
2023/09/28 18:49:20;;;;;;;;;;;;;;;24.93;29.58;100992.06;109070;1265;67390;-89
2023/09/28 18:51:51;;;;;;;;;;;;;;;24.93;29.58;100991.91;109080;1265;67448;-89
2023/09/28 18:54:16;;;;;;;;;;;;;;;24.93;29.60;100991.04;109038;1265;67842;-89
2023/09/28 18:56:42;;;;;;;;;;;;;;;24.92;29.47;100990.28;109028;1266;67463;-89
2023/09/28 18:59:10;;;;;;;;;;;;;;;24.93;29.42;100993.46;108972;1266;67453;-89
2023/09/28 19:01:36;;;;;;;;;;;;;;;24.92;29.41;100991.98;109015;1266;67452;-90
2023/09/28 19:04:01;;;;;;;;;;;;;;;24.91;29.53;100995.48;109005;1265;67357;-89
2023/09/28 19:06:28;;;;;;;;;;;;;;;24.91;29.55;100996.01;109017;1265;66855;-89
2023/09/28 19:08:54;;;;;;;;;;;;;;;24.91;29.55;100993.74;109024;1265;67818;-89
2023/09/28 19:11:19;;;;;;;;;;;;;;;24.90;29.67;100993.09;109108;1265;67410;-89
2023/09/28 19:13:45;;;;;;;;;;;;;;;24.90;29.57;100990.80;109135;1265;66940;-89
2023/09/28 19:16:10;;;;;;;;;;;;;;;24.90;29.51;100988.96;109106;1265;67549;-89
2023/09/28 19:18:35;;;;;;;;;;;;;;;24.90;29.64;100991.48;109130;1266;67586;-89
2023/09/28 19:21:01;;;;;;;;;;;;;;;24.90;29.48;100992.77;109098;1266;67726;-89
2023/09/28 19:23:27;;;;;;;;;;;;;;;24.89;29.63;100992.41;109110;1265;67991;-89
2023/09/28 19:25:53;;;;;;;;;;;;;;;24.90;29.65;100993.29;109127;1265;67493;-89
2023/09/28 19:31:00;;;;;;;;;;;;;;;24.88;29.54;100996.86;108861;1270;67670;-89
2023/09/28 19:33:25;;;;;;;;;;;;;;;24.89;29.67;100998.85;108895;1267;66968;-89
2023/09/28 19:35:51;;;;;;;;;;;;;;;24.88;29.57;100998.23;108884;1266;67400;-89
2023/09/28 19:38:16;;;;;;;;;;;;;;;24.88;29.68;100992.67;108959;1266;67420;-89
2023/09/28 19:40:42;;;;;;;;;;;;;;;24.88;29.68;100993.35;109162;1265;67072;-89
2023/09/28 19:43:09;;;;;;;;;;;;;;;24.87;29.56;100996.96;109066;1265;67585;-89
2023/09/28 19:45:34;;;;;;;;;;;;;;;24.87;29.60;100995.16;109104;1265;67411;-89
2023/09/28 19:48:03;;;;;;;;;;;;;;;24.87;29.71;100993.36;108935;1266;67716;-89
2023/09/28 19:50:29;;;;;;;;;;;;;;;24.87;29.67;100993.52;109072;1266;74296;-89
2023/09/28 19:52:54;;;;;;;;;;;;;;;24.87;29.73;100993.61;109041;1267;67852;-89
2023/09/28 19:55:28;;;;;;;;;;;;;;;24.86;29.70;100992.54;109110;1267;67686;-90
2023/09/28 19:57:54;;;;;;;;;;;;;;;24.85;29.62;100991.20;108995;1266;67563;-88
2023/09/28 20:00:19;;;;;;;;;;;;;;;24.85;29.53;100995.58;109015;1265;67657;-89
2023/09/28 20:02:45;;;;;;;;;;;;;;;24.86;29.69;100994.65;109010;1266;67687;-89
2023/09/28 20:05:11;;;;;;;;;;;;;;;24.85;29.78;100992.96;108988;1267;67610;-89
2023/09/28 20:07:38;;;;;;;;;;;;;;;24.84;29.65;100993.79;109107;1268;67408;-89
2023/09/28 20:10:04;;;;;;;;;;;;;;;24.84;29.60;100991.63;109006;1266;67677;-89
2023/09/28 20:12:29;;;;;;;;;;;;;;;24.84;29.46;100992.30;109029;1265;67499;-89
2023/09/28 20:14:55;;;;;;;;;;;;;;;24.84;29.53;100988.74;109038;1265;67060;-89
2023/09/28 20:17:20;;;;;;;;;;;;;;;24.83;29.48;100990.45;109024;1266;67171;-89
2023/09/28 20:19:46;;;;;;;;;;;;;;;24.83;29.75;100993.73;109158;1266;67670;-90
2023/09/28 20:24:51;;;;;;;;;;;;;;;24.82;29.75;100991.52;108900;1268;67627;-89
2023/09/28 20:27:16;;;;;;;;;;;;;;;24.82;29.47;100990.66;108990;1266;67515;-89
2023/09/28 20:29:42;;;;;;;;;;;;;;;24.82;29.51;100992.56;108927;1267;67402;-88
2023/09/28 20:32:07;;;;;;;;;;;;;;;24.82;29.57;100992.88;109072;1267;66877;-88
2023/09/28 20:34:32;;;;;;;;;;;;;;;24.81;29.55;100991.54;109155;1267;67496;-89
2023/09/28 20:36:58;;;;;;;;;;;;;;;24.81;29.42;100992.23;108912;1265;67635;-88
2023/09/28 20:39:23;;;;;;;;;;;;;;;24.80;29.58;100991.75;109089;1267;68076;-89
2023/09/28 20:41:49;;;;;;;;;;;;;;;24.80;29.59;100989.04;108939;1266;66901;-89
2023/09/28 20:44:15;;;;;;;;;;;;;;;24.79;29.63;100987.55;109049;1266;67389;-89